sensor_id;sensor_type;location;lat;lon;timestamp;P1;durP1;ratioP1;P2;durP2;ratioP2
44476;SDS011;30180;44.788;10.366;2023-03-01T00:01:22;7.90;;;5.47;;
44476;SDS011;30180;44.788;10.366;2023-03-01T00:03:52;8.35;;;5.32;;
44476;SDS011;30180;44.788;10.366;2023-03-01T00:06:22;7.18;;;5.10;;
44476;SDS011;30180;44.788;10.366;2023-03-01T00:08:50;7.85;;;5.85;;
44476;SDS011;30180;44.788;10.366;2023-03-01T00:11:19;8.77;;;5.47;;
44476;SDS011;30180;44.788;10.366;2023-03-01T00:13:51;8.73;;;5.57;;
44476;SDS011;30180;44.788;10.366;2023-03-01T00:16:21;6.47;;;5.07;;
44476;SDS011;30180;44.788;10.366;2023-03-01T00:18:51;7.32;;;4.90;;
44476;SDS011;30180;44.788;10.366;2023-03-01T00:21:19;9.07;;;5.88;;
44476;SDS011;30180;44.788;10.366;2023-03-01T00:23:48;7.43;;;5.38;;
44476;SDS011;30180;44.788;10.366;2023-03-01T00:26:18;8.55;;;5.75;;
44476;SDS011;30180;44.788;10.366;2023-03-01T00:28:48;7.70;;;5.15;;
44476;SDS011;30180;44.788;10.366;2023-03-01T00:31:18;8.63;;;5.30;;
44476;SDS011;30180;44.788;10.366;2023-03-01T00:33:48;7.53;;;5.10;;
44476;SDS011;30180;44.788;10.366;2023-03-01T00:36:19;7.68;;;4.90;;
44476;SDS011;30180;44.788;10.366;2023-03-01T00:38:47;8.07;;;5.50;;
44476;SDS011;30180;44.788;10.366;2023-03-01T00:41:16;7.80;;;5.50;;
44476;SDS011;30180;44.788;10.366;2023-03-01T00:43:45;7.15;;;5.03;;
44476;SDS011;30180;44.788;10.366;2023-03-01T00:46:15;9.02;;;5.30;;
44476;SDS011;30180;44.788;10.366;2023-03-01T00:48:45;8.15;;;5.35;;
44476;SDS011;30180;44.788;10.366;2023-03-01T00:51:14;8.10;;;5.18;;
44476;SDS011;30180;44.788;10.366;2023-03-01T00:53:44;8.27;;;5.80;;
44476;SDS011;30180;44.788;10.366;2023-03-01T00:56:13;7.35;;;4.70;;
44476;SDS011;30180;44.788;10.366;2023-03-01T00:58:42;7.80;;;5.25;;
44476;SDS011;30180;44.788;10.366;2023-03-01T01:01:11;7.55;;;5.10;;
44476;SDS011;30180;44.788;10.366;2023-03-01T01:03:46;9.82;;;4.88;;
44476;SDS011;30180;44.788;10.366;2023-03-01T01:06:16;7.35;;;5.00;;
44476;SDS011;30180;44.788;10.366;2023-03-01T01:08:46;7.20;;;4.95;;
44476;SDS011;30180;44.788;10.366;2023-03-01T01:11:15;7.45;;;5.15;;
44476;SDS011;30180;44.788;10.366;2023-03-01T01:13:44;8.30;;;5.80;;
44476;SDS011;30180;44.788;10.366;2023-03-01T01:16:14;7.38;;;4.95;;
44476;SDS011;30180;44.788;10.366;2023-03-01T01:18:44;6.95;;;5.38;;
44476;SDS011;30180;44.788;10.366;2023-03-01T01:21:14;7.25;;;5.10;;
44476;SDS011;30180;44.788;10.366;2023-03-01T01:23:43;7.13;;;5.25;;
44476;SDS011;30180;44.788;10.366;2023-03-01T01:26:13;6.68;;;4.88;;
44476;SDS011;30180;44.788;10.366;2023-03-01T01:28:42;8.25;;;5.13;;
44476;SDS011;30180;44.788;10.366;2023-03-01T01:31:11;7.13;;;5.00;;
44476;SDS011;30180;44.788;10.366;2023-03-01T01:33:39;7.38;;;5.18;;
44476;SDS011;30180;44.788;10.366;2023-03-01T01:36:09;8.73;;;5.03;;
44476;SDS011;30180;44.788;10.366;2023-03-01T01:38:38;7.43;;;5.03;;
44476;SDS011;30180;44.788;10.366;2023-03-01T01:41:09;7.38;;;4.97;;
44476;SDS011;30180;44.788;10.366;2023-03-01T01:43:40;6.97;;;4.97;;
44476;SDS011;30180;44.788;10.366;2023-03-01T01:46:14;7.68;;;5.10;;
44476;SDS011;30180;44.788;10.366;2023-03-01T01:48:50;7.65;;;4.95;;
44476;SDS011;30180;44.788;10.366;2023-03-01T01:51:24;8.45;;;5.97;;
44476;SDS011;30180;44.788;10.366;2023-03-01T01:53:56;7.85;;;5.45;;
44476;SDS011;30180;44.788;10.366;2023-03-01T01:56:27;7.57;;;4.90;;
44476;SDS011;30180;44.788;10.366;2023-03-01T01:58:57;8.27;;;4.90;;
44476;SDS011;30180;44.788;10.366;2023-03-01T02:01:25;7.85;;;4.82;;
44476;SDS011;30180;44.788;10.366;2023-03-01T02:03:54;8.90;;;5.38;;
44476;SDS011;30180;44.788;10.366;2023-03-01T02:06:25;7.65;;;4.97;;
44476;SDS011;30180;44.788;10.366;2023-03-01T02:08:57;8.07;;;5.25;;
44476;SDS011;30180;44.788;10.366;2023-03-01T02:11:29;7.75;;;5.35;;
44476;SDS011;30180;44.788;10.366;2023-03-01T02:13:58;7.60;;;5.07;;
44476;SDS011;30180;44.788;10.366;2023-03-01T02:16:27;7.05;;;4.90;;
44476;SDS011;30180;44.788;10.366;2023-03-01T02:18:56;8.32;;;5.18;;
44476;SDS011;30180;44.788;10.366;2023-03-01T02:21:38;9.90;;;5.40;;
44476;SDS011;30180;44.788;10.366;2023-03-01T02:24:15;8.05;;;5.35;;
44476;SDS011;30180;44.788;10.366;2023-03-01T02:26:50;7.97;;;5.07;;
44476;SDS011;30180;44.788;10.366;2023-03-01T02:29:22;7.88;;;5.13;;
44476;SDS011;30180;44.788;10.366;2023-03-01T02:31:52;8.00;;;5.72;;
44476;SDS011;30180;44.788;10.366;2023-03-01T02:36:53;8.38;;;5.25;;
44476;SDS011;30180;44.788;10.366;2023-03-01T02:39:27;7.18;;;4.85;;
44476;SDS011;30180;44.788;10.366;2023-03-01T02:41:58;7.50;;;4.97;;
44476;SDS011;30180;44.788;10.366;2023-03-01T02:44:30;7.30;;;5.13;;
44476;SDS011;30180;44.788;10.366;2023-03-01T02:46:58;7.80;;;5.45;;
44476;SDS011;30180;44.788;10.366;2023-03-01T02:49:31;8.05;;;5.35;;
44476;SDS011;30180;44.788;10.366;2023-03-01T02:52:04;7.28;;;5.40;;
44476;SDS011;30180;44.788;10.366;2023-03-01T02:54:52;7.57;;;4.95;;
44476;SDS011;30180;44.788;10.366;2023-03-01T02:57:26;7.68;;;5.22;;
44476;SDS011;30180;44.788;10.366;2023-03-01T02:59:58;7.78;;;4.93;;
44476;SDS011;30180;44.788;10.366;2023-03-01T03:02:33;6.38;;;4.70;;
44476;SDS011;30180;44.788;10.366;2023-03-01T03:05:06;7.63;;;5.05;;
44476;SDS011;30180;44.788;10.366;2023-03-01T03:07:38;6.82;;;5.18;;
44476;SDS011;30180;44.788;10.366;2023-03-01T03:10:09;8.27;;;5.67;;
44476;SDS011;30180;44.788;10.366;2023-03-01T03:12:39;8.15;;;5.18;;
44476;SDS011;30180;44.788;10.366;2023-03-01T03:15:09;7.93;;;5.68;;
44476;SDS011;30180;44.788;10.366;2023-03-01T03:17:39;8.88;;;4.90;;
44476;SDS011;30180;44.788;10.366;2023-03-01T03:20:12;8.98;;;5.75;;
44476;SDS011;30180;44.788;10.366;2023-03-01T03:22:45;8.63;;;5.38;;
44476;SDS011;30180;44.788;10.366;2023-03-01T03:25:14;7.30;;;5.38;;
44476;SDS011;30180;44.788;10.366;2023-03-01T03:27:43;7.78;;;5.13;;
44476;SDS011;30180;44.788;10.366;2023-03-01T03:30:14;8.60;;;5.63;;
44476;SDS011;30180;44.788;10.366;2023-03-01T03:32:45;6.97;;;4.90;;
44476;SDS011;30180;44.788;10.366;2023-03-01T03:35:19;7.85;;;5.00;;
44476;SDS011;30180;44.788;10.366;2023-03-01T03:37:48;6.70;;;4.95;;
44476;SDS011;30180;44.788;10.366;2023-03-01T03:40:33;7.63;;;5.22;;
44476;SDS011;30180;44.788;10.366;2023-03-01T03:43:03;7.97;;;5.45;;
44476;SDS011;30180;44.788;10.366;2023-03-01T03:45:35;7.83;;;5.10;;
44476;SDS011;30180;44.788;10.366;2023-03-01T03:48:04;9.25;;;5.47;;
44476;SDS011;30180;44.788;10.366;2023-03-01T03:50:34;8.98;;;5.30;;
44476;SDS011;30180;44.788;10.366;2023-03-01T03:53:04;9.15;;;4.95;;
44476;SDS011;30180;44.788;10.366;2023-03-01T03:55:33;8.20;;;5.32;;
44476;SDS011;30180;44.788;10.366;2023-03-01T03:58:06;6.70;;;5.30;;
44476;SDS011;30180;44.788;10.366;2023-03-01T04:00:38;7.30;;;4.90;;
44476;SDS011;30180;44.788;10.366;2023-03-01T04:05:36;7.43;;;4.53;;
44476;SDS011;30180;44.788;10.366;2023-03-01T04:08:05;8.73;;;5.60;;
44476;SDS011;30180;44.788;10.366;2023-03-01T04:10:34;8.07;;;5.30;;
44476;SDS011;30180;44.788;10.366;2023-03-01T04:13:04;7.23;;;5.30;;
44476;SDS011;30180;44.788;10.366;2023-03-01T04:15:34;7.55;;;4.68;;
44476;SDS011;30180;44.788;10.366;2023-03-01T04:18:04;8.77;;;5.75;;
44476;SDS011;30180;44.788;10.366;2023-03-01T04:20:33;7.60;;;5.07;;
44476;SDS011;30180;44.788;10.366;2023-03-01T04:23:04;10.05;;;6.00;;
44476;SDS011;30180;44.788;10.366;2023-03-01T04:25:40;8.40;;;5.10;;
44476;SDS011;30180;44.788;10.366;2023-03-01T04:28:09;7.43;;;5.05;;
44476;SDS011;30180;44.788;10.366;2023-03-01T04:30:38;7.10;;;4.57;;
44476;SDS011;30180;44.788;10.366;2023-03-01T04:33:09;7.80;;;5.00;;
44476;SDS011;30180;44.788;10.366;2023-03-01T04:35:38;8.07;;;5.00;;
44476;SDS011;30180;44.788;10.366;2023-03-01T04:38:07;7.78;;;4.68;;
44476;SDS011;30180;44.788;10.366;2023-03-01T04:40:36;7.47;;;5.03;;
44476;SDS011;30180;44.788;10.366;2023-03-01T04:43:04;7.97;;;4.68;;
44476;SDS011;30180;44.788;10.366;2023-03-01T04:45:33;6.95;;;4.68;;
44476;SDS011;30180;44.788;10.366;2023-03-01T04:48:02;7.20;;;4.93;;
44476;SDS011;30180;44.788;10.366;2023-03-01T04:50:32;7.57;;;4.65;;
44476;SDS011;30180;44.788;10.366;2023-03-01T04:53:01;6.68;;;4.40;;
44476;SDS011;30180;44.788;10.366;2023-03-01T04:55:29;6.18;;;4.65;;
44476;SDS011;30180;44.788;10.366;2023-03-01T04:57:58;6.55;;;4.30;;
44476;SDS011;30180;44.788;10.366;2023-03-01T05:00:26;6.28;;;4.35;;
44476;SDS011;30180;44.788;10.366;2023-03-01T05:02:55;6.55;;;4.38;;
44476;SDS011;30180;44.788;10.366;2023-03-01T05:05:25;7.28;;;4.40;;
44476;SDS011;30180;44.788;10.366;2023-03-01T05:07:57;7.38;;;4.53;;
44476;SDS011;30180;44.788;10.366;2023-03-01T05:10:27;6.20;;;4.30;;
44476;SDS011;30180;44.788;10.366;2023-03-01T05:12:56;7.90;;;4.43;;
44476;SDS011;30180;44.788;10.366;2023-03-01T05:15:25;7.65;;;4.68;;
44476;SDS011;30180;44.788;10.366;2023-03-01T05:17:56;7.25;;;4.50;;
44476;SDS011;30180;44.788;10.366;2023-03-01T05:20:26;5.93;;;4.17;;
44476;SDS011;30180;44.788;10.366;2023-03-01T05:22:55;6.75;;;4.03;;
44476;SDS011;30180;44.788;10.366;2023-03-01T05:25:26;7.43;;;4.45;;
44476;SDS011;30180;44.788;10.366;2023-03-01T05:27:59;6.65;;;4.60;;
44476;SDS011;30180;44.788;10.366;2023-03-01T05:32:59;7.65;;;4.30;;
44476;SDS011;30180;44.788;10.366;2023-03-01T05:35:27;6.35;;;4.53;;
44476;SDS011;30180;44.788;10.366;2023-03-01T05:38:00;6.43;;;4.53;;
44476;SDS011;30180;44.788;10.366;2023-03-01T05:40:28;6.70;;;4.32;;
44476;SDS011;30180;44.788;10.366;2023-03-01T05:42:57;6.32;;;4.75;;
44476;SDS011;30180;44.788;10.366;2023-03-01T05:45:26;7.07;;;4.30;;
44476;SDS011;30180;44.788;10.366;2023-03-01T05:47:54;7.25;;;4.70;;
44476;SDS011;30180;44.788;10.366;2023-03-01T05:50:23;7.47;;;4.40;;
44476;SDS011;30180;44.788;10.366;2023-03-01T05:52:56;6.45;;;4.18;;
44476;SDS011;30180;44.788;10.366;2023-03-01T05:55:28;7.95;;;4.57;;
44476;SDS011;30180;44.788;10.366;2023-03-01T05:57:58;6.13;;;4.10;;
44476;SDS011;30180;44.788;10.366;2023-03-01T06:00:27;6.10;;;4.25;;
44476;SDS011;30180;44.788;10.366;2023-03-01T06:02:57;7.03;;;4.75;;
44476;SDS011;30180;44.788;10.366;2023-03-01T06:05:26;7.22;;;4.50;;
44476;SDS011;30180;44.788;10.366;2023-03-01T06:07:58;6.78;;;4.63;;
44476;SDS011;30180;44.788;10.366;2023-03-01T06:10:28;7.28;;;4.65;;
44476;SDS011;30180;44.788;10.366;2023-03-01T06:12:57;6.60;;;4.78;;
44476;SDS011;30180;44.788;10.366;2023-03-01T06:15:25;7.82;;;4.80;;
44476;SDS011;30180;44.788;10.366;2023-03-01T06:17:54;8.25;;;4.90;;
44476;SDS011;30180;44.788;10.366;2023-03-01T06:20:26;8.85;;;5.50;;
44476;SDS011;30180;44.788;10.366;2023-03-01T06:22:55;7.15;;;5.00;;
44476;SDS011;30180;44.788;10.366;2023-03-01T06:25:25;7.00;;;4.55;;
44476;SDS011;30180;44.788;10.366;2023-03-01T06:27:54;7.95;;;4.63;;
44476;SDS011;30180;44.788;10.366;2023-03-01T06:30:23;6.65;;;4.38;;
44476;SDS011;30180;44.788;10.366;2023-03-01T06:32:53;6.40;;;4.90;;
44476;SDS011;30180;44.788;10.366;2023-03-01T06:35:27;8.18;;;4.88;;
44476;SDS011;30180;44.788;10.366;2023-03-01T06:37:57;8.13;;;4.80;;
44476;SDS011;30180;44.788;10.366;2023-03-01T06:40:27;8.63;;;4.85;;
44476;SDS011;30180;44.788;10.366;2023-03-01T06:45:27;7.22;;;5.05;;
44476;SDS011;30180;44.788;10.366;2023-03-01T06:48:02;7.55;;;4.97;;
44476;SDS011;30180;44.788;10.366;2023-03-01T06:50:31;7.47;;;5.03;;
44476;SDS011;30180;44.788;10.366;2023-03-01T06:53:00;7.68;;;4.88;;
44476;SDS011;30180;44.788;10.366;2023-03-01T06:55:30;11.40;;;5.10;;
44476;SDS011;30180;44.788;10.366;2023-03-01T06:57:59;8.68;;;4.82;;
44476;SDS011;30180;44.788;10.366;2023-03-01T07:00:28;9.48;;;4.93;;
44476;SDS011;30180;44.788;10.366;2023-03-01T07:02:58;9.93;;;5.18;;
44476;SDS011;30180;44.788;10.366;2023-03-01T07:07:56;10.57;;;5.63;;
44476;SDS011;30180;44.788;10.366;2023-03-01T07:10:24;13.35;;;5.10;;
44476;SDS011;30180;44.788;10.366;2023-03-01T07:12:55;8.60;;;5.05;;
44476;SDS011;30180;44.788;10.366;2023-03-01T07:17:51;8.45;;;4.90;;
44476;SDS011;30180;44.788;10.366;2023-03-01T07:20:20;7.45;;;4.72;;
44476;SDS011;30180;44.788;10.366;2023-03-01T07:22:50;13.48;;;4.90;;
44476;SDS011;30180;44.788;10.366;2023-03-01T07:25:19;9.77;;;4.68;;
44476;SDS011;30180;44.788;10.366;2023-03-01T07:27:49;11.52;;;5.40;;
44476;SDS011;30180;44.788;10.366;2023-03-01T07:30:19;9.13;;;5.10;;
44476;SDS011;30180;44.788;10.366;2023-03-01T07:32:48;10.13;;;5.72;;
44476;SDS011;30180;44.788;10.366;2023-03-01T07:35:20;12.98;;;5.82;;
44476;SDS011;30180;44.788;10.366;2023-03-01T07:37:49;8.15;;;5.15;;
44476;SDS011;30180;44.788;10.366;2023-03-01T07:40:17;10.40;;;5.13;;
44476;SDS011;30180;44.788;10.366;2023-03-01T07:42:46;8.70;;;5.68;;
44476;SDS011;30180;44.788;10.366;2023-03-01T07:45:14;8.40;;;5.57;;
44476;SDS011;30180;44.788;10.366;2023-03-01T07:47:43;9.73;;;5.00;;
44476;SDS011;30180;44.788;10.366;2023-03-01T07:50:11;10.63;;;5.00;;
44476;SDS011;30180;44.788;10.366;2023-03-01T07:52:41;10.50;;;4.93;;
44476;SDS011;30180;44.788;10.366;2023-03-01T07:55:12;13.80;;;5.40;;
44476;SDS011;30180;44.788;10.366;2023-03-01T07:57:40;10.00;;;5.05;;
44476;SDS011;30180;44.788;10.366;2023-03-01T08:00:10;12.70;;;5.72;;
44476;SDS011;30180;44.788;10.366;2023-03-01T08:02:39;10.73;;;5.20;;
44476;SDS011;30180;44.788;10.366;2023-03-01T08:05:09;8.27;;;4.90;;
44476;SDS011;30180;44.788;10.366;2023-03-01T08:07:38;13.70;;;5.60;;
44476;SDS011;30180;44.788;10.366;2023-03-01T08:10:06;10.50;;;4.90;;
44476;SDS011;30180;44.788;10.366;2023-03-01T08:12:35;9.52;;;5.15;;
44476;SDS011;30180;44.788;10.366;2023-03-01T08:15:03;12.20;;;5.57;;
44476;SDS011;30180;44.788;10.366;2023-03-01T08:17:32;11.43;;;5.10;;
44476;SDS011;30180;44.788;10.366;2023-03-01T08:20:01;9.50;;;4.75;;
44476;SDS011;30180;44.788;10.366;2023-03-01T08:25:01;10.45;;;4.65;;
44476;SDS011;30180;44.788;10.366;2023-03-01T08:27:30;9.48;;;5.25;;
44476;SDS011;30180;44.788;10.366;2023-03-01T08:29:58;8.60;;;5.20;;
44476;SDS011;30180;44.788;10.366;2023-03-01T08:32:26;10.65;;;4.47;;
44476;SDS011;30180;44.788;10.366;2023-03-01T08:34:55;8.63;;;4.80;;
44476;SDS011;30180;44.788;10.366;2023-03-01T08:37:23;11.07;;;5.03;;
44476;SDS011;30180;44.788;10.366;2023-03-01T08:39:52;11.38;;;5.32;;
44476;SDS011;30180;44.788;10.366;2023-03-01T08:42:21;7.97;;;4.90;;
44476;SDS011;30180;44.788;10.366;2023-03-01T08:44:49;8.57;;;4.88;;
44476;SDS011;30180;44.788;10.366;2023-03-01T08:47:18;10.15;;;4.75;;
44476;SDS011;30180;44.788;10.366;2023-03-01T08:49:46;8.88;;;4.72;;
44476;SDS011;30180;44.788;10.366;2023-03-01T08:52:18;6.22;;;4.47;;
44476;SDS011;30180;44.788;10.366;2023-03-01T08:54:47;8.70;;;5.20;;
44476;SDS011;30180;44.788;10.366;2023-03-01T08:57:17;9.98;;;4.60;;
44476;SDS011;30180;44.788;10.366;2023-03-01T08:59:45;8.75;;;4.97;;
44476;SDS011;30180;44.788;10.366;2023-03-01T09:02:15;7.60;;;4.50;;
44476;SDS011;30180;44.788;10.366;2023-03-01T09:07:13;6.70;;;4.25;;
44476;SDS011;30180;44.788;10.366;2023-03-01T09:09:41;8.45;;;4.40;;
44476;SDS011;30180;44.788;10.366;2023-03-01T09:12:10;7.65;;;4.03;;
44476;SDS011;30180;44.788;10.366;2023-03-01T09:14:39;8.05;;;4.25;;
44476;SDS011;30180;44.788;10.366;2023-03-01T09:17:08;9.93;;;5.07;;
44476;SDS011;30180;44.788;10.366;2023-03-01T09:19:36;8.88;;;5.28;;
44476;SDS011;30180;44.788;10.366;2023-03-01T09:22:05;12.07;;;4.07;;
44476;SDS011;30180;44.788;10.366;2023-03-01T09:24:33;9.60;;;3.92;;
44476;SDS011;30180;44.788;10.366;2023-03-01T09:27:01;8.10;;;3.80;;
44476;SDS011;30180;44.788;10.366;2023-03-01T09:29:35;8.38;;;3.55;;
44476;SDS011;30180;44.788;10.366;2023-03-01T09:32:05;7.85;;;3.88;;
44476;SDS011;30180;44.788;10.366;2023-03-01T09:34:34;7.32;;;3.53;;
44476;SDS011;30180;44.788;10.366;2023-03-01T09:37:23;7.57;;;3.80;;
44476;SDS011;30180;44.788;10.366;2023-03-01T09:39:51;6.97;;;3.80;;
44476;SDS011;30180;44.788;10.366;2023-03-01T09:42:19;8.07;;;3.78;;
44476;SDS011;30180;44.788;10.366;2023-03-01T09:44:49;10.55;;;3.78;;
44476;SDS011;30180;44.788;10.366;2023-03-01T09:47:25;8.70;;;3.60;;
44476;SDS011;30180;44.788;10.366;2023-03-01T09:50:01;6.53;;;3.33;;
44476;SDS011;30180;44.788;10.366;2023-03-01T09:52:35;7.93;;;3.67;;
44476;SDS011;30180;44.788;10.366;2023-03-01T09:55:09;9.07;;;3.65;;
44476;SDS011;30180;44.788;10.366;2023-03-01T09:57:41;7.57;;;3.67;;
44476;SDS011;30180;44.788;10.366;2023-03-01T10:00:20;9.73;;;4.05;;
44476;SDS011;30180;44.788;10.366;2023-03-01T10:02:59;5.93;;;3.33;;
44476;SDS011;30180;44.788;10.366;2023-03-01T10:05:38;8.00;;;4.00;;
44476;SDS011;30180;44.788;10.366;2023-03-01T10:08:19;9.10;;;3.72;;
44476;SDS011;30180;44.788;10.366;2023-03-01T10:10:55;8.40;;;3.60;;
44476;SDS011;30180;44.788;10.366;2023-03-01T10:13:26;7.13;;;3.40;;
44476;SDS011;30180;44.788;10.366;2023-03-01T10:16:01;7.70;;;3.65;;
44476;SDS011;30180;44.788;10.366;2023-03-01T10:18:38;8.80;;;3.97;;
44476;SDS011;30180;44.788;10.366;2023-03-01T10:21:12;14.85;;;4.45;;
44476;SDS011;30180;44.788;10.366;2023-03-01T10:23:43;12.05;;;4.10;;
44476;SDS011;30180;44.788;10.366;2023-03-01T10:26:17;7.15;;;3.38;;
44476;SDS011;30180;44.788;10.366;2023-03-01T10:29:05;8.30;;;3.40;;
44476;SDS011;30180;44.788;10.366;2023-03-01T10:31:37;6.47;;;3.47;;
44476;SDS011;30180;44.788;10.366;2023-03-01T10:34:11;7.70;;;3.65;;
44476;SDS011;30180;44.788;10.366;2023-03-01T10:36:43;9.65;;;3.70;;
44476;SDS011;30180;44.788;10.366;2023-03-01T10:39:16;11.95;;;4.05;;
44476;SDS011;30180;44.788;10.366;2023-03-01T10:41:53;12.43;;;4.00;;
44476;SDS011;30180;44.788;10.366;2023-03-01T10:44:41;8.50;;;3.60;;
44476;SDS011;30180;44.788;10.366;2023-03-01T10:47:15;10.80;;;3.38;;
44476;SDS011;30180;44.788;10.366;2023-03-01T10:49:56;12.32;;;3.58;;
44476;SDS011;30180;44.788;10.366;2023-03-01T10:52:29;7.10;;;3.67;;
44476;SDS011;30180;44.788;10.366;2023-03-01T10:55:01;12.13;;;3.67;;
44476;SDS011;30180;44.788;10.366;2023-03-01T10:57:34;8.18;;;3.35;;
44476;SDS011;30180;44.788;10.366;2023-03-01T11:03:09;8.68;;;3.78;;
44476;SDS011;30180;44.788;10.366;2023-03-01T11:05:51;11.90;;;4.00;;
44476;SDS011;30180;44.788;10.366;2023-03-01T11:08:37;12.02;;;3.58;;
44476;SDS011;30180;44.788;10.366;2023-03-01T11:11:13;6.55;;;3.30;;
44476;SDS011;30180;44.788;10.366;2023-03-01T11:14:01;5.63;;;3.28;;
44476;SDS011;30180;44.788;10.366;2023-03-01T11:16:58;11.20;;;3.45;;
44476;SDS011;30180;44.788;10.366;2023-03-01T11:19:27;6.40;;;3.10;;
44476;SDS011;30180;44.788;10.366;2023-03-01T11:21:59;6.97;;;3.63;;
44476;SDS011;30180;44.788;10.366;2023-03-01T11:24:35;6.25;;;3.13;;
44476;SDS011;30180;44.788;10.366;2023-03-01T11:27:12;8.18;;;3.55;;
44476;SDS011;30180;44.788;10.366;2023-03-01T11:29:45;6.22;;;3.42;;
44476;SDS011;30180;44.788;10.366;2023-03-01T11:32:17;8.88;;;3.45;;
44476;SDS011;30180;44.788;10.366;2023-03-01T11:34:50;5.80;;;3.28;;
44476;SDS011;30180;44.788;10.366;2023-03-01T11:37:29;7.38;;;3.33;;
44476;SDS011;30180;44.788;10.366;2023-03-01T11:40:12;10.52;;;4.13;;
44476;SDS011;30180;44.788;10.366;2023-03-01T11:42:48;8.10;;;3.22;;
44476;SDS011;30180;44.788;10.366;2023-03-01T11:45:24;8.75;;;3.63;;
44476;SDS011;30180;44.788;10.366;2023-03-01T11:48:05;4.80;;;3.00;;
44476;SDS011;30180;44.788;10.366;2023-03-01T11:50:40;8.48;;;3.22;;
44476;SDS011;30180;44.788;10.366;2023-03-01T11:53:20;7.00;;;3.20;;
44476;SDS011;30180;44.788;10.366;2023-03-01T11:56:07;7.32;;;3.60;;
44476;SDS011;30180;44.788;10.366;2023-03-01T11:58:51;7.40;;;3.20;;
44476;SDS011;30180;44.788;10.366;2023-03-01T12:01:32;6.05;;;3.17;;
44476;SDS011;30180;44.788;10.366;2023-03-01T12:04:18;7.33;;;3.00;;
44476;SDS011;30180;44.788;10.366;2023-03-01T12:07:12;8.68;;;3.30;;
44476;SDS011;30180;44.788;10.366;2023-03-01T12:09:52;5.05;;;3.00;;
44476;SDS011;30180;44.788;10.366;2023-03-01T12:12:40;8.40;;;3.30;;
44476;SDS011;30180;44.788;10.366;2023-03-01T12:18:13;6.60;;;3.10;;
44476;SDS011;30180;44.788;10.366;2023-03-01T12:20:54;8.23;;;3.17;;
44476;SDS011;30180;44.788;10.366;2023-03-01T12:23:38;5.65;;;3.22;;
44476;SDS011;30180;44.788;10.366;2023-03-01T12:26:26;7.55;;;3.20;;
44476;SDS011;30180;44.788;10.366;2023-03-01T12:29:02;7.35;;;3.30;;
44476;SDS011;30180;44.788;10.366;2023-03-01T12:34:54;7.40;;;3.25;;
44476;SDS011;30180;44.788;10.366;2023-03-01T12:37:45;9.05;;;3.10;;
44476;SDS011;30180;44.788;10.366;2023-03-01T12:40:33;6.05;;;3.22;;
44476;SDS011;30180;44.788;10.366;2023-03-01T12:43:22;6.00;;;3.00;;
44476;SDS011;30180;44.788;10.366;2023-03-01T12:46:06;6.97;;;3.10;;
44476;SDS011;30180;44.788;10.366;2023-03-01T12:48:46;7.60;;;3.40;;
44476;SDS011;30180;44.788;10.366;2023-03-01T12:51:24;6.50;;;3.10;;
44476;SDS011;30180;44.788;10.366;2023-03-01T12:53:57;7.85;;;3.08;;
44476;SDS011;30180;44.788;10.366;2023-03-01T12:56:30;10.50;;;3.08;;
44476;SDS011;30180;44.788;10.366;2023-03-01T12:59:05;6.75;;;2.88;;
44476;SDS011;30180;44.788;10.366;2023-03-01T13:01:40;7.00;;;3.10;;
44476;SDS011;30180;44.788;10.366;2023-03-01T13:04:16;8.02;;;3.30;;
44476;SDS011;30180;44.788;10.366;2023-03-01T13:06:54;6.10;;;2.67;;
44476;SDS011;30180;44.788;10.366;2023-03-01T13:09:31;6.38;;;2.78;;
44476;SDS011;30180;44.788;10.366;2023-03-01T13:15:19;11.13;;;3.00;;
44476;SDS011;30180;44.788;10.366;2023-03-01T13:17:53;6.93;;;2.97;;
44476;SDS011;30180;44.788;10.366;2023-03-01T13:20:24;5.95;;;2.92;;
44476;SDS011;30180;44.788;10.366;2023-03-01T13:23:01;6.88;;;2.90;;
44476;SDS011;30180;44.788;10.366;2023-03-01T13:25:32;7.05;;;3.08;;
44476;SDS011;30180;44.788;10.366;2023-03-01T13:34:47;5.57;;;3.00;;
44476;SDS011;30180;44.788;10.366;2023-03-01T13:37:21;6.80;;;2.83;;
44476;SDS011;30180;44.788;10.366;2023-03-01T13:39:56;5.55;;;2.88;;
44476;SDS011;30180;44.788;10.366;2023-03-01T13:42:31;8.68;;;2.83;;
44476;SDS011;30180;44.788;10.366;2023-03-01T13:45:14;5.10;;;2.40;;
44476;SDS011;30180;44.788;10.366;2023-03-01T13:47:50;6.43;;;3.03;;
44476;SDS011;30180;44.788;10.366;2023-03-01T13:50:27;6.20;;;2.75;;
44476;SDS011;30180;44.788;10.366;2023-03-01T13:52:57;5.10;;;2.90;;
44476;SDS011;30180;44.788;10.366;2023-03-01T13:55:31;8.50;;;3.15;;
44476;SDS011;30180;44.788;10.366;2023-03-01T13:58:12;6.75;;;3.17;;
44476;SDS011;30180;44.788;10.366;2023-03-01T14:00:46;8.63;;;3.50;;
44476;SDS011;30180;44.788;10.366;2023-03-01T14:03:15;10.38;;;3.97;;
44476;SDS011;30180;44.788;10.366;2023-03-01T14:05:58;11.18;;;4.70;;
44476;SDS011;30180;44.788;10.366;2023-03-01T14:08:41;13.85;;;3.95;;
44476;SDS011;30180;44.788;10.366;2023-03-01T14:11:20;8.20;;;3.90;;
44476;SDS011;30180;44.788;10.366;2023-03-01T14:14:10;13.85;;;3.75;;
44476;SDS011;30180;44.788;10.366;2023-03-01T14:17:00;11.33;;;4.17;;
44476;SDS011;30180;44.788;10.366;2023-03-01T14:19:36;8.75;;;3.63;;
44476;SDS011;30180;44.788;10.366;2023-03-01T14:22:10;11.65;;;3.50;;
44476;SDS011;30180;44.788;10.366;2023-03-01T14:24:46;10.18;;;3.20;;
44476;SDS011;30180;44.788;10.366;2023-03-01T14:27:16;11.50;;;3.78;;
44476;SDS011;30180;44.788;10.366;2023-03-01T14:29:54;12.10;;;3.78;;
44476;SDS011;30180;44.788;10.366;2023-03-01T14:32:24;13.38;;;3.17;;
44476;SDS011;30180;44.788;10.366;2023-03-01T14:34:54;7.47;;;3.35;;
44476;SDS011;30180;44.788;10.366;2023-03-01T14:37:26;6.75;;;3.20;;
44476;SDS011;30180;44.788;10.366;2023-03-01T14:39:57;9.07;;;3.35;;
44476;SDS011;30180;44.788;10.366;2023-03-01T14:42:28;12.13;;;3.40;;
44476;SDS011;30180;44.788;10.366;2023-03-01T14:45:01;6.32;;;3.33;;
44476;SDS011;30180;44.788;10.366;2023-03-01T14:47:32;7.05;;;3.03;;
44476;SDS011;30180;44.788;10.366;2023-03-01T14:50:02;7.47;;;2.90;;
44476;SDS011;30180;44.788;10.366;2023-03-01T14:52:37;10.88;;;3.28;;
44476;SDS011;30180;44.788;10.366;2023-03-01T14:55:17;7.35;;;3.13;;
44476;SDS011;30180;44.788;10.366;2023-03-01T14:57:48;12.77;;;3.20;;
44476;SDS011;30180;44.788;10.366;2023-03-01T15:00:18;9.63;;;3.00;;
44476;SDS011;30180;44.788;10.366;2023-03-01T15:02:50;17.33;;;3.08;;
44476;SDS011;30180;44.788;10.366;2023-03-01T15:05:22;9.57;;;3.40;;
44476;SDS011;30180;44.788;10.366;2023-03-01T15:07:56;11.18;;;3.78;;
44476;SDS011;30180;44.788;10.366;2023-03-01T15:12:55;11.32;;;3.17;;
44476;SDS011;30180;44.788;10.366;2023-03-01T15:15:30;8.00;;;2.78;;
44476;SDS011;30180;44.788;10.366;2023-03-01T15:18:01;11.88;;;3.30;;
44476;SDS011;30180;44.788;10.366;2023-03-01T15:20:31;9.60;;;3.67;;
44476;SDS011;30180;44.788;10.366;2023-03-01T15:23:03;12.63;;;3.42;;
44476;SDS011;30180;44.788;10.366;2023-03-01T15:25:32;12.15;;;3.15;;
44476;SDS011;30180;44.788;10.366;2023-03-01T15:28:02;9.07;;;3.63;;
44476;SDS011;30180;44.788;10.366;2023-03-01T15:30:32;8.02;;;3.00;;
44476;SDS011;30180;44.788;10.366;2023-03-01T15:33:17;11.93;;;3.47;;
44476;SDS011;30180;44.788;10.366;2023-03-01T15:35:48;9.82;;;3.15;;
44476;SDS011;30180;44.788;10.366;2023-03-01T15:38:28;11.30;;;3.15;;
44476;SDS011;30180;44.788;10.366;2023-03-01T15:41:02;8.02;;;3.13;;
44476;SDS011;30180;44.788;10.366;2023-03-01T15:43:39;8.07;;;3.33;;
44476;SDS011;30180;44.788;10.366;2023-03-01T15:46:14;15.18;;;3.35;;